Pagrindinis puslapis
METAR-TAF:

METAR-TAF

Oro uostai :

Palembangas, Indonezija

platuma: 02-54S, ilguma: 104-42E, Aukštis: 10 m

Dabartinis oras

Ataskaita buvo paskelbta 6 valandos ir 22 minutes, ne 14:00 UTC
Vėjas 10 kt iš Rytų/Pietryčių
Temperatūra 27°C
Drėgmė 74%
Slėgis 1011 hPa
Matomumas: 2500 m
Mažai debesys ne aukštis 1000 ft
dūmai

METAR: WIPP 201400Z 12010KT 2500 FU FEW010 27/22 Q1011

Laikas: 03:22 (20:22 UTC)

Prognozė

Ataskaita buvo paskelbta 3 valandos ir 22 minutes, ne 17:00 UTC
Prognozė galioja nuo 20 metu 18 UTC su 21 metu 18 UTC
Vėjas 11 kt iš Pietryčių
Matomumas: 3000 m
Išsisklaidę debesys ne aukštis 1000 ft
dūmai
Laikinai
nuo 20 metu 22 UTC su 21 metu 01 UTC
Matomumas: 0700 m
Laikinai
nuo 21 metu 04 UTC su 21 metu 08 UTC
Matomumas: 7000 m
Su prošvaistėmis ne aukštis 1000 ft

TAF: WIPP 201700Z 2018/2118 14011KT 3000 FU SCT010 TEMPO 2022/2101 0700 TEMPO 2104/2108 7000 BKN010

Orai ataskaitas ir orų prognozės (METAR, TAF).

turimą stotys yra geltonos ir raudonos taškus žemėlapyje.

Perkelti pele per norėdami pamatyti stoties vardą.

Tada spustelėkite, norėdami matyti oro stebėjimo ir prognozės.

Norėdami pakeisti žemėlapį: spustelėkite ant žalios mygtukų su juodo kryžiaus žemyn,; žalią mygtuką su brūkšneliu, jei norite nutolinti; arba žalių rodyklių gretimoms žemėlapius.


METAR-TAF: